This is the latest recevied weather packets stored in our database for station/object KO5S. If no packets are shown the sender has not sent any weather packets the latest 10 day(s).
| Time | Temp. | Humidity | Pressure | Rain* | Wind** | Luminosity | Snow |
|---|---|---|---|---|---|---|---|
| 1777852095 | 22.22° C | 52% | 1013.2 hPa | 0 mm | - | - | - |
| 1777847895 | 23.89° C | 44% | 1013.3 hPa | 0 mm | - | - | - |
| 1777847295 | 23.89° C | 42% | 1013.4 hPa | 0 mm | - | - | - |
| 1777846695 | 24.44° C | 42% | 1013.4 hPa | 0 mm | - | - | - |
| 1777837695 | 25.56° C | 39% | 1015.3 hPa | 0 mm | - | - | - |
| 1777836515 | 25° C | 40% | 1015.4 hPa | 0 mm | - | - | - |
| 1777831736 | 24.44° C | 41% | 1016.5 hPa | 0 mm | - | - | - |
| 1777829315 | 23.89° C | 39% | 1017 hPa | 0 mm | - | - | - |
| 1777818495 | 19.44° C | 71% | 1018 hPa | 0 mm | - | - | - |
| 1777811318 | 8.89° C | 93% | 1016.9 hPa | 0 mm | - | - | - |
| 1777810117 | 8.33° C | 93% | 1016.8 hPa | 0 mm | - | - | - |
| 1777808896 | 7.22° C | 93% | 1016.8 hPa | 0 mm | - | - | - |
| 1777802897 | 7.22° C | 92% | 1016.2 hPa | 0 mm | - | - | - |
| 1777802297 | 7.22° C | 92% | 1016.1 hPa | 0 mm | - | - | - |
| 1777801697 | 7.22° C | 92% | 1016.1 hPa | 0 mm | - | - | - |
| 1777801097 | 7.78° C | 92% | 1016 hPa | 0 mm | - | - | - |
| 1777800538 | 7.78° C | 92% | 1016 hPa | 0 mm | - | - | - |
| 1777799296 | 7.78° C | 92% | 1015.9 hPa | 0 mm | - | - | - |
| 1777790896 | 8.33° C | 90% | 1015.2 hPa | 0 mm | - | - | - |
| 1777784937 | 10° C | 88% | 1014.9 hPa | 0 mm | - | - | - |
| 1777778896 | 12.22° C | 81% | 1014.3 hPa | 0 mm | - | - | - |
| 1777777096 | 13.33° C | 79% | 1014 hPa | 0 mm | - | - | - |
| 1777776496 | 13.33° C | 78% | 1013.9 hPa | 0 mm | - | - | - |
| 1777771695 | 15° C | 69% | 1013 hPa | 0 mm | - | - | - |
| 1777768095 | 18.33° C | 56% | 1011.9 hPa | 0 mm | - | - | - |
* Rain latest hour (hover to see other rain measurements)
** Current wind speed in m/s (hover to see current wind gust speed)